Kirkwood, California
Current Conditions -  °F | °C
As of 10:53 AM on Tuesday 21 Oct 2014 (Local Time) from KTVL Reporting Station
Clear Clear  
Wind Chill: 52°   Ceiling: Unl
Heat Index: 52°   Visibility: 10mi
Dew Point: 19°   Wind: 9mph
Humidity: 27%   Direction: 180°S
Pressure: 30.13"   Gusts: NA
Location:  38.7°N, 120.07°W
Report Text: KTVL 211753Z AUTO 18008KT 10SM CLR 11/M07 A3013 RMK AO2 SLP175 T01111072 10111 20006 50006
Loading
Personal Weather Stations






























Interactive Weather Map
Tropical Storm Tracking
New forecast layout! Learn more

10-Day Weather Forecast

Advertisements
Track Severe Weather on mobile